Hauptseite
METAR-TAF:

METAR-TAF

Flughäfen :

Gafsa, Tunesien

Breite: 34-25N, Länge: 008-49E, Höhe: 313 m

Beobachtung

Neuester Wetterbericht von vor 36 Minuten, um 15:00 UTC
Wind 14 kt aus West/Südwest
Temperatur 21°C
Luftfeuchtigkeit 21%
Luftdruck 1017 hPa
Sichtweite 10 km oder mehr
keine Wolken unter 1500 m und keine Kumulonimbus oder Gewitterwolken

METAR: DTTF 251500Z 24014KT CAVOK 21/M02 Q1017 NOSIG

Zeit: 16:36 (15:36 UTC)

Prognose

Neuester Wetterbericht von vor 36 Minuten, um 15:00 UTC
Gültige Prognose vom 25 um 16 UTC bis 26 um 01 UTC
Wind 15 kt aus West/Südwest
Sichtweite 10 km oder mehr
keine Wolken unter 1500 m und keine Kumulonimbus oder Gewitterwolken
Übergehend zu
vom 25 um 17 UTC bis 25 um 19 UTC
Wind 5 kt aus Süd

TAF: DTTF 251500Z 2516/2601 24015KT CAVOK BECMG 2517/2519 18005KT

Wetterbeobachtungen und Prognosen von mehr als 4000 Flughäfen (METAR und TAF Bericht).

Die verfügbaren Stationen werden durch gelbe und rote Markierungen auf der Karte dargestellt.

Führen Sie die Maus auf sie, um den Namen der Station zu sehen.

Darauf klicken, um die Beobachtung von Wetterbeobachtungen und Prognosen zu sehen.

Um die Karte zu ändern : klicken Sie auf den grünen Tasten mit einem schwarzen Kreuz Zum Vergrößern, auf den grünen Button mit einem Gedankenstrich zu verkleinern, oder auf die grünen Pfeile für benachbarte Karten.


METAR-TAF: